createdAt,value
2023-03-29T00:00:49.802Z,2.77
2023-03-29T00:06:05.739Z,2.70
2023-03-29T00:11:12.689Z,2.47
2023-03-29T00:16:18.382Z,2.38
2023-03-29T00:21:26.423Z,1.67
2023-03-29T00:26:31.800Z,2.37
2023-03-29T00:31:37.283Z,2.10
2023-03-29T00:36:45.787Z,2.22
2023-03-29T00:41:52.646Z,2.30
2023-03-29T00:46:58.205Z,2.20
2023-03-29T00:52:06.794Z,2.40
2023-03-29T00:57:13.841Z,2.03
2023-03-29T01:02:22.320Z,1.73
2023-03-29T01:07:35.548Z,2.30
2023-03-29T01:12:46.857Z,2.20
2023-03-29T01:17:54.097Z,1.87
2023-03-29T01:23:27.100Z,2.05
2023-03-29T01:28:39.923Z,2.10
2023-03-29T01:33:51.145Z,2.08
2023-03-29T01:38:59.953Z,2.15
2023-03-29T01:44:11.745Z,2.00
2023-03-29T01:49:24.895Z,2.25
2023-03-29T01:54:36.255Z,1.95
2023-03-29T01:59:47.467Z,2.03
2023-03-29T02:04:57.642Z,2.22
2023-03-29T02:10:07.344Z,2.17
2023-03-29T02:15:19.232Z,2.03
2023-03-29T02:20:28.960Z,2.05
2023-03-29T02:25:36.026Z,1.80
2023-03-29T02:30:54.088Z,2.13
2023-03-29T02:36:05.616Z,2.20
2023-03-29T02:41:13.910Z,1.60
2023-03-29T02:46:22.842Z,1.92
2023-03-29T02:51:31.755Z,2.03
2023-03-29T02:56:44.924Z,1.85
2023-03-29T03:01:53.743Z,2.70
2023-03-29T03:07:00.935Z,2.35
2023-03-29T03:12:06.746Z,2.58
2023-03-29T03:17:14.988Z,2.27
2023-03-29T03:22:20.894Z,2.45
2023-03-29T03:27:26.337Z,2.67
2023-03-29T03:32:34.889Z,2.30
2023-03-29T03:38:00.424Z,2.58
2023-03-29T03:43:06.001Z,2.40
2023-03-29T03:48:14.362Z,2.22
2023-03-29T03:53:27.437Z,2.60
2023-03-29T03:58:52.838Z,2.95
2023-03-29T04:04:01.782Z,2.92
2023-03-29T04:09:09.350Z,2.83
2023-03-29T04:14:18.605Z,2.72
2023-03-29T04:19:44.866Z,2.63
2023-03-29T04:24:51.270Z,3.05
2023-03-29T04:30:32.477Z,3.10
2023-03-29T04:35:49.343Z,3.07
2023-03-29T04:40:57.262Z,2.92
2023-03-29T04:46:17.171Z,3.27
2023-03-29T04:51:45.552Z,3.20
2023-03-29T04:56:52.366Z,3.40
2023-03-29T05:02:14.300Z,3.67
2023-03-29T05:07:25.522Z,3.90
2023-03-29T05:12:31.469Z,3.57
2023-03-29T05:17:37.374Z,3.45
2023-03-29T05:22:50.824Z,3.63
2023-03-29T05:28:16.433Z,3.80
2023-03-29T05:33:22.206Z,3.67
2023-03-29T05:38:32.907Z,3.67
2023-03-29T05:43:38.784Z,3.60
2023-03-29T05:48:44.554Z,3.55
2023-03-29T05:53:53.442Z,3.33
2023-03-29T05:58:59.874Z,3.03
2023-03-29T06:04:10.988Z,3.33
2023-03-29T06:09:26.929Z,7.57
2023-03-29T06:14:42.084Z,3.42
2023-03-29T06:20:22.164Z,3.07
2023-03-29T06:25:39.728Z,2.55
2023-03-29T06:30:47.134Z,2.73
2023-03-29T06:35:53.306Z,2.70
2023-03-29T06:41:09.343Z,2.83
2023-03-29T06:46:30.504Z,3.00
2023-03-29T06:51:40.384Z,3.25
2023-03-29T06:56:49.219Z,2.77
2023-03-29T07:01:57.195Z,2.50
2023-03-29T07:07:27.773Z,2.35
2023-03-29T07:12:49.467Z,2.53
2023-03-29T07:17:56.088Z,2.97
2023-03-29T07:23:02.209Z,2.33
2023-03-29T07:28:12.004Z,2.58
2023-03-29T07:33:18.202Z,2.22
2023-03-29T07:38:30.236Z,2.47
2023-03-29T07:43:54.459Z,2.25
2023-03-29T07:49:02.913Z,2.20
2023-03-29T07:54:09.629Z,2.15
2023-03-29T07:59:31.726Z,2.58
2023-03-29T08:04:50.886Z,2.40
2023-03-29T08:09:56.580Z,2.55
2023-03-29T08:15:19.022Z,2.40
2023-03-29T08:20:25.062Z,2.40
2023-03-29T08:25:35.379Z,2.45
2023-03-29T08:30:44.226Z,2.57
2023-03-29T08:35:49.960Z,2.58
2023-03-29T08:41:22.046Z,2.33
2023-03-29T08:46:43.664Z,2.60
2023-03-29T08:52:19.765Z,2.40
2023-03-29T08:57:28.689Z,2.53
2023-03-29T09:02:44.735Z,2.70
2023-03-29T09:07:50.688Z,2.10
2023-03-29T09:13:16.499Z,2.85
2023-03-29T09:18:33.246Z,2.50
2023-03-29T09:23:58.093Z,2.90
2023-03-29T09:29:43.940Z,3.10
2023-03-29T09:35:01.339Z,2.77
2023-03-29T09:40:14.933Z,2.60
2023-03-29T09:45:43.010Z,2.90
2023-03-29T09:50:54.116Z,2.57
2023-03-29T09:56:00.374Z,3.20
2023-03-29T10:01:17.656Z,3.10
2023-03-29T10:06:29.607Z,2.92
2023-03-29T10:11:39.427Z,2.92
2023-03-29T10:16:49.038Z,3.47
2023-03-29T10:21:58.818Z,3.40
2023-03-29T10:27:07.050Z,4.43
2023-03-29T10:32:20.097Z,3.60
2023-03-29T10:37:33.892Z,3.78
2023-03-29T10:43:15.115Z,3.87
2023-03-29T10:48:21.642Z,3.80
2023-03-29T10:53:32.689Z,3.00
2023-03-29T10:58:51.411Z,3.30
2023-03-29T11:04:14.895Z,3.17
2023-03-29T11:09:29.500Z,3.27
2023-03-29T11:14:44.663Z,3.38
2023-03-29T11:20:06.897Z,3.33
2023-03-29T11:25:29.711Z,3.40
2023-03-29T11:30:43.060Z,3.30
2023-03-29T11:35:56.512Z,2.93
2023-03-29T11:41:13.734Z,3.05
2023-03-29T11:46:23.381Z,3.10
2023-03-29T11:51:34.036Z,3.58
2023-03-29T11:56:47.668Z,3.10
2023-03-29T12:01:57.834Z,3.20
2023-03-29T12:07:14.759Z,3.20
2023-03-29T12:12:27.711Z,3.13
2023-03-29T12:17:37.731Z,2.33
2023-03-29T12:22:43.802Z,2.58
2023-03-29T12:28:00.140Z,2.90
2023-03-29T12:33:45.573Z,2.60
2023-03-29T12:39:23.148Z,2.13
2023-03-29T12:45:03.428Z,2.17
2023-03-29T12:50:25.934Z,1.90
2023-03-29T12:55:35.616Z,1.63
2023-03-29T13:00:50.576Z,1.55
2023-03-29T13:06:52.885Z,1.58
2023-03-29T13:12:02.945Z,1.33
2023-03-29T13:17:18.851Z,1.63
2023-03-29T13:22:36.067Z,1.50
2023-03-29T13:27:59.830Z,1.90
2023-03-29T13:33:21.141Z,1.70
2023-03-29T13:38:32.233Z,2.10
2023-03-29T13:43:40.465Z,1.70
2023-03-29T13:49:06.997Z,1.60
2023-03-29T13:59:54.635Z,1.20
2023-03-29T14:05:04.962Z,0.70
2023-03-29T14:10:15.318Z,1.30
2023-03-29T14:15:39.402Z,1.40
2023-03-29T14:20:49.921Z,1.70
2023-03-29T14:25:58.151Z,1.37
2023-03-29T14:31:03.516Z,1.42
2023-03-29T14:36:18.931Z,1.07
2023-03-29T14:41:25.021Z,1.30
2023-03-29T14:46:31.779Z,1.20
2023-03-29T14:51:40.647Z,1.40
2023-03-29T14:56:46.810Z,1.30
2023-03-29T15:01:52.893Z,1.48
2023-03-29T15:07:01.710Z,1.67
2023-03-29T15:12:07.434Z,1.60
2023-03-29T15:17:42.660Z,2.00
2023-03-29T15:23:02.084Z,1.60
2023-03-29T15:28:08.335Z,1.20
2023-03-29T15:33:24.467Z,1.60
2023-03-29T15:38:43.211Z,1.60
2023-03-29T15:43:50.019Z,1.53
2023-03-29T15:48:55.437Z,1.50
2023-03-29T15:54:04.638Z,1.40
2023-03-29T15:59:12.207Z,2.50
2023-03-29T16:04:21.176Z,2.40
2023-03-29T16:09:29.675Z,1.90
2023-03-29T16:14:35.146Z,1.73
2023-03-29T16:19:40.625Z,1.40
2023-03-29T16:24:52.420Z,1.60
2023-03-29T16:29:59.052Z,2.07
2023-03-29T16:35:05.281Z,2.03
2023-03-29T16:40:15.342Z,2.20
2023-03-29T16:45:21.838Z,3.97
2023-03-29T16:50:27.384Z,2.70
2023-03-29T16:55:36.539Z,2.50
2023-03-29T17:00:41.926Z,1.77
2023-03-29T17:05:52.127Z,2.25
2023-03-29T17:11:01.307Z,1.83
2023-03-29T17:16:08.096Z,2.00
2023-03-29T17:21:13.601Z,1.92
2023-03-29T17:26:23.679Z,2.00
2023-03-29T17:31:35.070Z,2.07
2023-03-29T17:36:41.467Z,3.38
2023-03-29T17:41:50.524Z,3.07
2023-03-29T17:46:56.089Z,3.00
2023-03-29T17:52:01.758Z,3.10
2023-03-29T17:57:10.243Z,2.77
2023-03-29T18:02:20.870Z,3.13
2023-03-29T18:07:26.403Z,4.70
2023-03-29T18:12:34.609Z,3.87
2023-03-29T18:17:40.186Z,2.28
2023-03-29T18:22:47.032Z,2.50
2023-03-29T18:27:55.150Z,2.57
2023-03-29T18:33:00.610Z,2.28
2023-03-29T18:38:09.236Z,2.45
2023-03-29T18:43:18.014Z,2.70
2023-03-29T18:48:24.041Z,4.20
2023-03-29T18:53:29.387Z,2.73
2023-03-29T18:58:37.593Z,2.60
2023-03-29T19:03:43.569Z,2.65
2023-03-29T19:08:54.215Z,2.30
2023-03-29T19:14:02.312Z,2.10
2023-03-29T19:19:08.429Z,1.90
2023-03-29T19:24:19.720Z,2.50
2023-03-29T19:29:28.604Z,1.80
2023-03-29T19:34:34.088Z,1.90
2023-03-29T19:39:41.677Z,1.93
2023-03-29T19:44:49.748Z,2.00
2023-03-29T19:49:55.207Z,2.20
2023-03-29T19:55:01.597Z,1.97
2023-03-29T20:00:11.734Z,2.27
2023-03-29T20:05:20.325Z,2.33
2023-03-29T20:10:25.854Z,1.90
2023-03-29T20:15:33.945Z,2.40
2023-03-29T20:20:39.336Z,2.20
2023-03-29T20:25:44.764Z,2.20
2023-03-29T20:30:52.847Z,2.53
2023-03-29T20:35:58.504Z,2.78
2023-03-29T20:41:04.843Z,2.50
2023-03-29T20:46:24.091Z,2.13
2023-03-29T20:51:32.169Z,2.00
2023-03-29T20:56:42.357Z,2.67
2023-03-29T21:01:52.140Z,2.30
2023-03-29T21:07:00.923Z,2.35
2023-03-29T21:12:11.358Z,2.80
2023-03-29T21:17:19.593Z,2.70
2023-03-29T21:22:25.096Z,2.50
2023-03-29T21:27:45.443Z,2.60
2023-03-29T21:32:54.338Z,2.28
2023-03-29T21:38:01.095Z,2.50
2023-03-29T21:43:06.745Z,2.20
2023-03-29T21:48:16.732Z,2.40
2023-03-29T21:53:22.519Z,2.13
2023-03-29T21:58:27.975Z,2.08
2023-03-29T22:03:38.862Z,2.25
2023-03-29T22:08:46.920Z,2.40
2023-03-29T22:13:55.205Z,2.38
2023-03-29T22:19:03.254Z,2.50
2023-03-29T22:24:09.281Z,2.20
2023-03-29T22:29:15.146Z,2.20
2023-03-29T22:34:23.391Z,2.47
2023-03-29T22:39:30.137Z,2.42
2023-03-29T22:44:36.162Z,2.30
2023-03-29T22:49:44.093Z,1.90
2023-03-29T22:54:49.452Z,2.13
2023-03-29T22:59:54.849Z,1.93
2023-03-29T23:05:02.831Z,2.10
2023-03-29T23:10:10.836Z,2.10
2023-03-29T23:15:17.154Z,2.30
2023-03-29T23:20:25.297Z,2.30
2023-03-29T23:25:30.701Z,2.35
2023-03-29T23:30:38.673Z,2.20
2023-03-29T23:35:46.830Z,1.90
2023-03-29T23:40:59.177Z,2.70
2023-03-29T23:46:07.127Z,2.50
2023-03-29T23:51:15.479Z,2.00
2023-03-29T23:56:21.738Z,2.13
